Time;durP1;ratioP1;P1;durP2;ratioP2;P2;SDS_P1;SDS_P2;PMS_P1;PMS_P2;Temp;Humidity;BMP_temperature;BMP_pressure;BME280_temperature;BME280_humidity;BME280_pressure;Samples;Min_cycle;Max_cycle;Signal;HPM_P1;HPM_P2
2023/06/11 00:00:10;;;;;;;4.38;4.07;;;16.50;99.90;;;;;;5061551;28;20430;-79
2023/06/11 00:02:35;;;;;;;5.15;4.65;;;16.40;99.90;;;;;;5043081;28;20025;-79
2023/06/11 00:05:07;;;;;;;6.38;5.75;;;16.40;99.90;;;;;;5043965;28;20032;-78
2023/06/11 00:07:34;;;;;;;5.88;5.38;;;16.40;99.90;;;;;;5037141;28;20147;-80
2023/06/11 00:10:01;;;;;;;5.85;5.30;;;16.30;99.90;;;;;;5040528;28;20029;-79
2023/06/11 00:12:26;;;;;;;5.90;5.30;;;16.30;99.90;;;;;;5049967;28;20036;-79
2023/06/11 00:14:52;;;;;;;6.43;5.80;;;16.30;99.90;;;;;;5041538;28;20448;-79
2023/06/11 00:17:18;;;;;;;6.05;5.45;;;16.30;99.90;;;;;;5026069;28;20051;-79
2023/06/11 00:19:44;;;;;;;5.68;5.20;;;16.20;99.90;;;;;;5052202;28;20043;-79
2023/06/11 00:22:11;;;;;;;6.45;5.85;;;16.20;99.90;;;;;;5064515;28;20052;-80
2023/06/11 00:24:37;;;;;;;6.82;6.22;;;16.20;99.90;;;;;;5059037;28;20029;-78
2023/06/11 00:27:03;;;;;;;6.68;6.00;;;16.10;99.90;;;;;;5041314;28;20090;-79
2023/06/11 00:29:29;;;;;;;6.03;5.53;;;16.10;99.90;;;;;;5059397;28;20021;-78
2023/06/11 00:31:55;;;;;;;5.55;5.10;;;16.10;99.90;;;;;;5061572;28;20028;-79
2023/06/11 00:34:20;;;;;;;4.50;4.18;;;16.10;99.90;;;;;;5060705;28;20020;-79
2023/06/11 00:36:46;;;;;;;4.63;4.22;;;16.10;99.90;;;;;;5063573;28;20040;-79
2023/06/11 00:39:12;;;;;;;5.13;4.70;;;16.10;99.90;;;;;;5061694;28;20419;-79
2023/06/11 00:41:45;;;;;;;5.03;4.63;;;16.10;99.90;;;;;;5057038;28;20111;-79
2023/06/11 00:44:17;;;;;;;5.65;5.15;;;16.10;99.90;;;;;;5056443;28;20025;-79
2023/06/11 00:46:44;;;;;;;4.75;4.35;;;16.10;99.90;;;;;;5057033;28;20035;-79
2023/06/11 00:49:11;;;;;;;4.72;4.32;;;16.00;99.90;;;;;;5056439;28;20052;-79
2023/06/11 00:51:41;;;;;;;5.28;4.88;;;16.00;99.90;;;;;;5055852;28;20067;-79
2023/06/11 00:54:08;;;;;;;5.53;5.03;;;16.00;99.90;;;;;;5056225;28;20462;-79
2023/06/11 00:56:34;;;;;;;6.53;5.18;;;16.00;99.90;;;;;;5056208;28;20064;-77
2023/06/11 00:59:00;;;;;;;6.82;6.22;;;15.90;99.90;;;;;;5055057;28;20036;-78
2023/06/11 01:01:31;;;;;;;5.97;5.47;;;15.90;99.90;;;;;;5055933;28;20025;-77
2023/06/11 01:04:00;;;;;;;5.87;5.37;;;15.90;99.90;;;;;;5054718;28;20021;-78
2023/06/11 01:06:28;;;;;;;6.40;5.80;;;15.80;99.90;;;;;;5055659;28;20415;-79
2023/06/11 01:08:57;;;;;;;6.50;5.90;;;15.80;99.90;;;;;;5056401;28;20486;-79
2023/06/11 01:11:23;;;;;;;6.72;6.10;;;15.80;99.90;;;;;;5059002;28;20062;-79
2023/06/11 01:13:51;;;;;;;6.88;6.20;;;15.70;99.90;;;;;;5055364;28;20071;-78
2023/06/11 01:16:37;;;;;;;6.10;5.53;;;15.70;99.90;;;;;;5053710;28;20618;-79
2023/06/11 01:19:27;;;;;;;6.90;5.82;;;15.70;99.90;;;;;;5055044;28;20288;-79
2023/06/11 01:21:59;;;;;;;6.50;5.90;;;15.70;99.90;;;;;;5055379;28;20043;-79
2023/06/11 01:24:43;;;;;;;7.22;6.20;;;15.60;99.90;;;;;;5054968;28;20025;-80
2023/06/11 01:27:24;;;;;;;6.97;6.13;;;15.60;99.90;;;;;;5074703;28;20029;-78
2023/06/11 01:29:52;;;;;;;7.38;6.68;;;15.60;99.90;;;;;;5063245;28;20049;-80
2023/06/11 01:32:27;;;;;;;7.53;5.85;;;15.60;99.90;;;;;;5062225;28;20016;-78
2023/06/11 01:35:03;;;;;;;8.95;8.05;;;15.50;99.90;;;;;;5075722;28;20029;-79
2023/06/11 01:37:29;;;;;;;8.60;7.75;;;15.50;99.90;;;;;;5072225;28;20496;-79
2023/06/11 01:39:56;;;;;;;7.88;7.13;;;15.40;99.90;;;;;;5039843;28;20032;-78
2023/06/11 01:42:21;;;;;;;7.95;7.25;;;15.40;99.90;;;;;;5035825;28;20083;-79
2023/06/11 01:44:47;;;;;;;7.80;7.10;;;15.40;99.90;;;;;;5053752;28;20021;-79
2023/06/11 01:47:13;;;;;;;8.35;7.43;;;15.40;99.90;;;;;;5055213;28;20023;-79
2023/06/11 01:49:38;;;;;;;7.80;7.05;;;15.40;99.90;;;;;;5053904;28;20051;-79
2023/06/11 01:52:05;;;;;;;7.03;6.40;;;15.40;99.90;;;;;;5036547;28;20056;-79
2023/06/11 01:54:31;;;;;;;6.50;5.90;;;15.40;99.90;;;;;;5054800;28;20048;-79
2023/06/11 01:56:56;;;;;;;7.68;6.97;;;15.40;99.90;;;;;;5053721;28;20029;-79
2023/06/11 01:59:22;;;;;;;7.32;6.63;;;15.40;99.90;;;;;;5053703;28;20033;-79
2023/06/11 02:01:55;;;;;;;7.53;6.78;;;15.40;99.90;;;;;;5057483;28;20025;-79
2023/06/11 02:04:21;;;;;;;7.30;6.35;;;15.40;99.90;;;;;;5065874;28;20045;-78
2023/06/11 02:06:47;;;;;;;7.63;6.93;;;15.40;99.90;;;;;;5058733;28;20131;-79
2023/06/11 02:09:13;;;;;;;7.70;7.00;;;15.40;99.90;;;;;;5053437;28;20029;-78
2023/06/11 02:11:39;;;;;;;7.00;6.38;;;15.30;99.90;;;;;;5039816;28;20032;-79
2023/06/11 02:14:05;;;;;;;7.10;6.47;;;15.30;99.90;;;;;;5058061;28;20371;-77
2023/06/11 02:16:30;;;;;;;7.78;6.30;;;15.30;99.90;;;;;;5058221;28;20402;-79
2023/06/11 02:18:56;;;;;;;7.30;6.60;;;15.20;99.90;;;;;;5055863;28;20078;-79
2023/06/11 02:21:21;;;;;;;7.35;6.65;;;15.20;99.90;;;;;;5054396;28;20154;-78
2023/06/11 02:23:48;;;;;;;6.57;5.97;;;15.10;99.90;;;;;;5037659;28;20025;-79
2023/06/11 02:26:14;;;;;;;6.63;5.97;;;15.10;99.90;;;;;;5055595;28;20433;-79
2023/06/11 02:28:39;;;;;;;7.57;6.88;;;15.10;99.90;;;;;;5054302;28;20028;-79
2023/06/11 02:31:05;;;;;;;7.18;6.47;;;15.10;99.90;;;;;;5052977;28;20075;-78
2023/06/11 02:33:31;;;;;;;6.95;6.05;;;15.10;99.90;;;;;;5053608;28;20017;-78
2023/06/11 02:35:56;;;;;;;6.55;5.95;;;15.10;99.90;;;;;;5053683;28;20466;-78
2023/06/11 02:38:22;;;;;;;6.68;6.07;;;15.10;99.90;;;;;;5038696;28;20447;-79
2023/06/11 02:40:48;;;;;;;6.25;5.25;;;15.10;99.90;;;;;;5059102;28;20024;-78
2023/06/11 02:43:14;;;;;;;5.47;4.97;;;15.10;99.90;;;;;;5060757;28;20160;-78
2023/06/11 02:45:40;;;;;;;4.97;4.57;;;15.20;99.90;;;;;;5058003;28;20029;-78
2023/06/11 02:48:05;;;;;;;5.75;5.25;;;15.20;99.90;;;;;;5075221;28;20076;-78
2023/06/11 02:50:31;;;;;;;5.97;5.45;;;15.20;99.90;;;;;;5073330;28;20044;-78
2023/06/11 02:52:56;;;;;;;5.47;4.97;;;15.20;99.90;;;;;;5074908;28;20044;-78
2023/06/11 02:55:22;;;;;;;5.28;4.78;;;15.20;99.90;;;;;;5068155;28;20108;-78
2023/06/11 02:57:48;;;;;;;5.40;4.90;;;15.10;99.90;;;;;;5053560;28;20541;-79
2023/06/11 03:00:13;;;;;;;4.70;4.30;;;15.10;99.90;;;;;;5053283;28;20069;-78
2023/06/11 03:02:39;;;;;;;4.30;4.00;;;15.20;99.90;;;;;;5053160;28;20486;-78
2023/06/11 03:05:05;;;;;;;5.78;5.28;;;15.10;99.90;;;;;;5020590;28;20034;-79
2023/06/11 03:07:31;;;;;;;5.88;5.38;;;15.10;99.90;;;;;;5032358;28;20025;-78
2023/06/11 03:09:56;;;;;;;5.60;5.10;;;15.10;99.90;;;;;;5032800;28;20108;-78
2023/06/11 03:12:22;;;;;;;5.65;5.00;;;15.10;99.90;;;;;;5047435;28;20092;-78
2023/06/11 03:14:48;;;;;;;7.55;6.85;;;15.10;99.90;;;;;;5052478;28;20107;-78
2023/06/11 03:17:13;;;;;;;6.93;6.30;;;15.10;99.90;;;;;;5052589;28;20025;-75
2023/06/11 03:19:39;;;;;;;6.65;6.05;;;15.10;99.90;;;;;;5049281;28;20089;-75
2023/06/11 03:22:05;;;;;;;5.97;5.47;;;15.00;99.90;;;;;;5051585;28;20017;-76
2023/06/11 03:24:30;;;;;;;6.28;5.68;;;15.10;99.90;;;;;;5050976;28;20108;-77
2023/06/11 03:26:56;;;;;;;6.70;6.10;;;15.10;99.90;;;;;;5051137;28;20029;-76
2023/06/11 03:29:22;;;;;;;7.07;6.38;;;15.10;99.90;;;;;;5050475;28;20299;-76
2023/06/11 03:31:48;;;;;;;8.02;7.22;;;15.10;99.90;;;;;;5052128;28;20052;-75
2023/06/11 03:34:13;;;;;;;7.40;6.70;;;15.10;99.90;;;;;;5054327;28;20048;-77
2023/06/11 03:36:39;;;;;;;6.18;5.60;;;15.10;99.90;;;;;;5029125;28;20045;-76
2023/06/11 03:39:05;;;;;;;6.30;5.70;;;15.20;99.90;;;;;;5034014;28;20025;-76
2023/06/11 03:41:30;;;;;;;6.10;5.50;;;15.10;99.90;;;;;;5034049;28;20043;-76
2023/06/11 03:43:56;;;;;;;6.28;5.75;;;15.20;99.90;;;;;;5033443;28;20105;-76
2023/06/11 03:46:23;;;;;;;6.95;6.25;;;15.20;99.90;;;;;;5033710;28;20148;-76
2023/06/11 03:48:48;;;;;;;6.68;6.07;;;15.20;99.90;;;;;;5037049;28;20033;-76
2023/06/11 03:51:15;;;;;;;6.30;5.70;;;15.20;99.90;;;;;;5053888;28;20024;-76
2023/06/11 03:53:43;;;;;;;7.20;5.90;;;15.20;99.90;;;;;;5045228;28;20025;-76
2023/06/11 03:56:09;;;;;;;5.32;4.82;;;15.20;99.90;;;;;;5053260;28;20114;-75
2023/06/11 03:58:35;;;;;;;5.53;5.03;;;15.30;99.90;;;;;;5053556;28;20052;-77
2023/06/11 04:01:00;;;;;;;5.57;5.13;;;15.30;99.90;;;;;;5053573;28;20044;-76
2023/06/11 04:03:26;;;;;;;6.13;5.63;;;15.30;99.90;;;;;;5053318;28;20427;-77
2023/06/11 04:05:51;;;;;;;5.53;5.07;;;15.30;99.90;;;;;;5053027;28;20116;-77
2023/06/11 04:08:17;;;;;;;5.60;5.13;;;15.30;99.90;;;;;;5052566;28;20044;-76
2023/06/11 04:10:43;;;;;;;5.53;5.13;;;15.40;99.90;;;;;;5047626;28;20045;-76
2023/06/11 04:13:09;;;;;;;6.38;5.88;;;;;;;;;;5033231;28;20033;-76
2023/06/11 04:15:35;;;;;;;6.82;6.22;;;15.40;99.90;;;;;;5015112;28;20100;-77
2023/06/11 04:18:01;;;;;;;7.70;7.00;;;15.50;99.90;;;;;;5015578;28;20030;-76
2023/06/11 04:20:26;;;;;;;8.68;7.88;;;15.50;99.90;;;;;;5049733;28;20131;-76
2023/06/11 04:22:53;;;;;;;7.35;6.75;;;15.50;99.90;;;;;;5058399;28;20537;-76
2023/06/11 04:25:19;;;;;;;10.50;8.50;;;15.50;99.90;;;;;;5049590;28;20018;-77
2023/06/11 04:27:46;;;;;;;9.55;8.65;;;15.60;99.90;;;;;;5034535;28;20386;-77
2023/06/11 04:30:14;;;;;;;8.95;8.05;;;15.60;99.90;;;;;;5042378;28;20092;-77
2023/06/11 04:32:40;;;;;;;10.10;9.20;;;15.60;99.90;;;;;;5056169;28;20029;-79
2023/06/11 04:35:06;;;;;;;10.52;9.50;;;15.60;99.90;;;;;;5053993;28;20130;-76
2023/06/11 04:37:38;;;;;;;10.52;9.43;;;15.70;99.90;;;;;;5060062;28;20088;-77
2023/06/11 04:40:09;;;;;;;9.13;8.23;;;15.70;99.90;;;;;;5058868;28;20390;-77
2023/06/11 04:42:41;;;;;;;9.35;7.57;;;15.70;99.90;;;;;;5056934;28;20116;-78
2023/06/11 04:45:10;;;;;;;8.23;7.53;;;15.80;99.90;;;;;;5054902;28;20033;-77
2023/06/11 04:47:36;;;;;;;8.93;8.02;;;15.90;99.90;;;;;;5052830;28;20017;-77
2023/06/11 04:50:04;;;;;;;6.78;6.18;;;15.90;99.90;;;;;;5053087;28;20029;-76
2023/06/11 04:52:42;;;;;;;7.72;7.03;;;16.00;99.90;;;;;;5052865;28;20461;-79
2023/06/11 04:55:12;;;;;;;6.78;6.15;;;16.10;99.90;;;;;;5032794;28;20491;-76
2023/06/11 04:57:38;;;;;;;6.38;5.78;;;16.20;99.90;;;;;;5048551;28;20072;-77
2023/06/11 05:00:08;;;;;;;6.13;5.63;;;16.20;99.90;;;;;;5053695;28;20047;-77
2023/06/11 05:02:38;;;;;;;7.15;6.53;;;16.40;99.90;;;;;;5052647;28;20112;-76
2023/06/11 05:05:05;;;;;;;5.82;5.32;;;16.50;99.90;;;;;;5051968;28;20017;-76
2023/06/11 05:07:31;;;;;;;6.32;5.80;;;16.90;99.90;;;;;;5052292;28;20052;-76
2023/06/11 05:09:57;;;;;;;5.95;5.35;;;;;;;;;;5052440;28;20013;-76
2023/06/11 05:12:23;;;;;;;5.32;4.82;;;20.10;99.90;;;;;;5052730;28;20029;-76
2023/06/11 05:14:49;;;;;;;6.30;5.80;;;21.80;95.70;;;;;;5052213;28;20059;-76
2023/06/11 05:17:15;;;;;;;5.15;4.65;;;23.00;91.20;;;;;;5052335;28;20029;-76
2023/06/11 05:19:42;;;;;;;4.80;4.30;;;23.80;88.00;;;;;;5052635;28;20017;-76
2023/06/11 05:22:07;;;;;;;4.78;4.38;;;24.80;81.90;;;;;;5052679;28;20033;-76
2023/06/11 05:24:33;;;;;;;5.00;4.50;;;25.40;77.90;;;;;;5052322;28;20080;-76
2023/06/11 05:26:59;;;;;;;4.45;4.15;;;25.80;74.10;;;;;;5057594;28;20112;-80
2023/06/11 05:29:28;;;;;;;3.88;3.58;;;26.10;72.20;;;;;;5067227;28;20032;-82
2023/06/11 05:31:58;;;;;;;3.65;3.35;;;26.40;69.90;;;;;;5047781;28;20025;-81
2023/06/11 05:34:25;;;;;;;3.63;3.33;;;26.80;68.00;;;;;;5058148;28;20052;-81
2023/06/11 05:36:52;;;;;;;3.95;3.65;;;27.20;66.30;;;;;;5023745;28;20025;-82
2023/06/11 05:39:19;;;;;;;3.83;3.50;;;27.60;64.70;;;;;;5058015;28;20025;-81
2023/06/11 05:41:45;;;;;;;3.75;3.45;;;27.90;63.00;;;;;;5065504;28;20031;-81
2023/06/11 05:44:11;;;;;;;4.40;3.95;;;28.40;62.30;;;;;;5055191;28;20029;-82
2023/06/11 05:46:40;;;;;;;5.13;4.03;;;28.50;60.10;;;;;;5024781;28;20033;-81
2023/06/11 05:49:06;;;;;;;4.15;3.85;;;28.60;59.50;;;;;;5026421;28;20021;-82
2023/06/11 05:51:32;;;;;;;2.95;2.80;;;28.70;59.10;;;;;;5036509;28;20055;-81
2023/06/11 05:54:00;;;;;;;2.92;2.72;;;28.90;58.90;;;;;;5051040;28;20025;-82
2023/06/11 05:56:26;;;;;;;3.33;3.10;;;29.00;57.50;;;;;;5052236;28;20100;-80
2023/06/11 05:58:52;;;;;;;3.95;3.65;;;28.90;57.50;;;;;;5044962;28;20037;-79
2023/06/11 06:01:18;;;;;;;2.60;2.35;;;28.90;58.60;;;;;;5067274;28;20185;-79
2023/06/11 06:03:44;;;;;;;3.88;3.58;;;;;;;;;;5054804;28;20033;-80
2023/06/11 06:08:46;;;;;;;3.70;3.40;;;;;;;;;;5070676;28;20048;-81
2023/06/11 06:11:12;;;;;;;3.00;2.80;;;;;;;;;;5061482;28;20025;-80
2023/06/11 06:13:38;;;;;;;2.90;2.70;;;;;;;;;;5058655;28;20070;-80
2023/06/11 06:16:05;;;;;;;3.88;3.40;;;;;;;;;;5057129;28;20063;-81
2023/06/11 06:18:33;;;;;;;4.28;3.95;;;30.40;51.30;;;;;;5055028;28;20036;-80
2023/06/11 06:20:58;;;;;;;3.88;3.58;;;30.20;52.20;;;;;;5053719;28;20075;-80
2023/06/11 06:23:24;;;;;;;3.40;3.10;;;29.60;52.90;;;;;;5036480;28;20390;-80
2023/06/11 06:25:50;;;;;;;3.70;3.40;;;29.20;54.70;;;;;;5035981;28;20022;-81
2023/06/11 06:28:17;;;;;;;2.75;2.55;;;29.20;54.40;;;;;;5040264;28;20045;-84
2023/06/11 06:30:43;;;;;;;3.05;2.85;;;29.90;54.20;;;;;;5031858;28;20478;-80
2023/06/11 06:33:08;;;;;;;3.15;2.95;;;30.50;52.60;;;;;;5034784;28;20048;-79
2023/06/11 06:35:34;;;;;;;2.70;2.60;;;30.70;51.40;;;;;;5037759;28;20076;-80
2023/06/11 06:38:02;;;;;;;3.20;3.00;;;30.60;51.50;;;;;;5057583;28;20055;-80
2023/06/11 06:40:28;;;;;;;3.97;3.67;;;29.80;51.50;;;;;;5058115;28;20056;-79
2023/06/11 06:42:54;;;;;;;3.92;3.63;;;29.10;53.30;;;;;;5061803;28;20061;-79
2023/06/11 06:45:19;;;;;;;3.65;3.45;;;28.90;54.20;;;;;;5052246;28;20075;-79
2023/06/11 06:47:45;;;;;;;3.22;3.03;;;29.00;53.90;;;;;;5054097;28;20123;-79
2023/06/11 06:50:11;;;;;;;3.65;3.35;;;29.10;53.80;;;;;;5053082;28;20080;-79
2023/06/11 06:52:36;;;;;;;3.67;3.45;;;29.40;53.10;;;;;;5057848;28;20025;-79
2023/06/11 06:55:02;;;;;;;3.47;3.17;;;29.40;53.40;;;;;;5058147;28;20040;-78
2023/06/11 06:57:28;;;;;;;4.15;3.75;;;29.40;52.90;;;;;;5044377;28;20025;-79
2023/06/11 06:59:53;;;;;;;3.20;3.00;;;29.20;53.40;;;;;;5024049;28;20045;-80
2023/06/11 07:02:19;;;;;;;3.67;3.47;;;28.60;54.20;;;;;;5046267;28;20261;-79
2023/06/11 07:04:45;;;;;;;4.07;3.78;;;27.70;55.00;;;;;;5048413;28;20489;-78
2023/06/11 07:07:10;;;;;;;4.13;3.72;;;27.70;56.50;;;;;;5051713;28;20037;-79
2023/06/11 07:09:36;;;;;;;4.10;3.78;;;28.20;55.50;;;;;;5052917;28;20029;-79
2023/06/11 07:12:02;;;;;;;4.28;3.40;;;28.80;54.80;;;;;;5052044;28;20021;-78
2023/06/11 07:14:28;;;;;;;3.20;3.00;;;29.40;53.20;;;;;;5054707;28;20032;-79
2023/06/11 07:16:53;;;;;;;3.53;3.28;;;29.40;52.60;;;;;;5067906;28;20136;-79
2023/06/11 07:19:19;;;;;;;4.07;3.05;;;28.40;53.30;;;;;;5077337;28;20037;-79
2023/06/11 07:21:45;;;;;;;3.63;3.33;;;27.10;55.20;;;;;;5060178;28;20552;-78
2023/06/11 07:24:11;;;;;;;3.38;3.13;;;25.70;58.30;;;;;;5068730;28;20394;-78
2023/06/11 07:26:37;;;;;;;4.00;3.70;;;24.60;60.90;;;;;;5076060;28;20021;-79
2023/06/11 07:29:02;;;;;;;5.85;4.20;;;23.60;63.30;;;;;;5055851;28;20025;-78
2023/06/11 07:31:28;;;;;;;7.65;4.35;;;23.00;65.50;;;;;;5042900;28;20069;-78
2023/06/11 07:33:54;;;;;;;4.93;4.45;;;22.30;67.40;;;;;;5038535;28;20033;-80
2023/06/11 07:36:20;;;;;;;4.55;4.10;;;21.80;69.10;;;;;;5040056;28;20039;-78
2023/06/11 07:38:46;;;;;;;3.50;3.20;;;21.50;70.80;;;;;;5043574;28;20033;-79
2023/06/11 07:41:15;;;;;;;3.60;3.38;;;21.40;71.70;;;;;;5041949;28;20021;-78
2023/06/11 07:43:40;;;;;;;4.32;3.80;;;21.50;72.20;;;;;;5039954;28;20021;-78
2023/06/11 07:46:06;;;;;;;4.13;3.72;;;21.60;71.70;;;;;;5038369;28;20360;-78
2023/06/11 07:48:32;;;;;;;4.00;3.40;;;21.60;71.80;;;;;;5037925;28;20032;-78
2023/06/11 07:50:57;;;;;;;4.70;3.50;;;21.50;72.00;;;;;;5058716;28;20020;-79
2023/06/11 07:53:24;;;;;;;4.38;3.97;;;21.50;71.90;;;;;;5061846;28;20095;-79
2023/06/11 07:55:55;;;;;;;3.60;3.30;;;21.50;71.70;;;;;;5057495;28;20040;-78
2023/06/11 07:58:21;;;;;;;4.13;3.72;;;21.50;72.00;;;;;;5056117;28;20460;-78
2023/06/11 08:00:47;;;;;;;3.17;2.90;;;21.70;72.70;;;;;;5059176;28;20029;-79
2023/06/11 08:03:13;;;;;;;2.78;2.58;;;;;;;;;;5041049;28;20025;-79
2023/06/11 08:05:38;;;;;;;3.25;2.97;;;22.10;70.50;;;;;;5060122;28;20017;-78
2023/06/11 08:08:04;;;;;;;5.95;2.85;;;22.40;70.00;;;;;;5058756;28;20210;-77
2023/06/11 08:10:32;;;;;;;4.32;3.55;;;22.50;69.10;;;;;;5058993;28;20021;-78
2023/06/11 08:12:58;;;;;;;3.38;3.10;;;22.80;68.20;;;;;;5057851;28;20063;-79
2023/06/11 08:15:24;;;;;;;3.08;2.88;;;22.90;68.00;;;;;;5038562;28;20021;-78
2023/06/11 08:17:50;;;;;;;5.30;3.33;;;22.80;66.80;;;;;;5059445;28;20025;-78
2023/06/11 08:20:16;;;;;;;3.88;3.35;;;22.60;67.00;;;;;;5061486;28;20072;-79
2023/06/11 08:22:42;;;;;;;3.72;3.40;;;22.50;67.80;;;;;;5057858;28;20525;-78
2023/06/11 08:25:09;;;;;;;2.97;2.78;;;22.70;67.70;;;;;;5059760;28;20123;-79
2023/06/11 08:27:35;;;;;;;3.60;3.30;;;23.00;67.20;;;;;;5058743;28;20067;-79
2023/06/11 08:30:02;;;;;;;4.82;3.00;;;23.00;66.50;;;;;;5057756;28;20021;-79
2023/06/11 08:32:27;;;;;;;3.53;3.22;;;23.10;66.40;;;;;;5059218;28;20031;-78
2023/06/11 08:34:53;;;;;;;2.83;2.63;;;23.10;65.70;;;;;;5059857;28;20025;-77
2023/06/11 08:37:18;;;;;;;3.33;3.13;;;22.90;65.60;;;;;;5058645;28;20036;-78
2023/06/11 08:39:44;;;;;;;9.70;4.28;;;22.80;65.50;;;;;;5039303;28;20475;-77
2023/06/11 08:42:10;;;;;;;3.88;3.55;;;22.70;65.90;;;;;;5060892;28;20044;-79
2023/06/11 08:44:36;;;;;;;3.92;3.53;;;;;;;;;;5065485;28;20028;-77
2023/06/11 08:47:06;;;;;;;3.90;3.60;;;;;;;;;;5059227;28;20085;-78
2023/06/11 08:49:32;;;;;;;3.97;3.58;;;;;;;;;;5057959;28;20032;-78
2023/06/11 08:52:02;;;;;;;4.07;3.65;;;;;;;;;;5058065;28;20029;-78
2023/06/11 08:54:28;;;;;;;4.05;3.72;;;22.20;67.60;;;;;;5040552;28;20046;-79
2023/06/11 08:56:54;;;;;;;4.05;3.35;;;22.20;68.20;;;;;;5061932;28;20017;-78
2023/06/11 08:59:20;;;;;;;3.40;3.15;;;22.40;68.20;;;;;;5059069;28;20029;-79
2023/06/11 09:01:51;;;;;;;3.63;3.25;;;22.50;67.20;;;;;;5059075;28;20021;-78
2023/06/11 09:04:18;;;;;;;3.30;3.00;;;22.50;67.10;;;;;;5056551;28;20025;-78
2023/06/11 09:07:00;;;;;;;3.72;3.30;;;22.30;67.70;;;;;;5058166;28;20390;-78
2023/06/11 09:09:26;;;;;;;2.95;2.75;;;22.50;68.30;;;;;;5060692;28;20029;-78
2023/06/11 09:11:52;;;;;;;2.97;2.78;;;22.90;67.70;;;;;;5061035;28;20108;-78
2023/06/11 09:14:19;;;;;;;2.95;2.75;;;23.30;66.60;;;;;;5038067;28;20041;-78
2023/06/11 09:16:47;;;;;;;2.70;2.50;;;23.60;65.10;;;;;;5059242;28;20580;-78
2023/06/11 09:19:20;;;;;;;2.78;2.58;;;23.90;63.80;;;;;;5060833;28;20044;-79
2023/06/11 09:21:56;;;;;;;2.67;2.47;;;24.20;62.50;;;;;;5057619;28;20474;-80
2023/06/11 09:24:24;;;;;;;2.92;2.72;;;24.60;61.10;;;;;;5056910;28;20039;-79
2023/06/11 09:26:55;;;;;;;3.15;2.58;;;24.70;60.50;;;;;;5033841;28;20066;-78
2023/06/11 09:29:27;;;;;;;3.40;2.93;;;24.70;60.40;;;;;;5054960;28;20496;-78
2023/06/11 09:32:07;;;;;;;3.20;3.00;;;24.60;59.80;;;;;;5038555;28;20021;-79
2023/06/11 09:34:32;;;;;;;4.10;2.72;;;24.50;59.80;;;;;;5053718;28;20108;-78
2023/06/11 09:37:00;;;;;;;2.83;2.63;;;24.40;60.00;;;;;;5055866;28;20052;-79
2023/06/11 09:39:27;;;;;;;3.15;2.70;;;24.50;59.80;;;;;;5056187;28;20071;-78
2023/06/11 09:41:53;;;;;;;3.30;3.00;;;24.60;59.20;;;;;;5057313;28;20032;-79
2023/06/11 09:44:19;;;;;;;2.40;2.30;;;24.50;58.60;;;;;;5057648;28;20029;-79
2023/06/11 09:46:47;;;;;;;2.90;2.70;;;24.50;58.80;;;;;;5038673;28;20031;-78
2023/06/11 09:49:15;;;;;;;3.28;3.00;;;24.60;59.00;;;;;;5044034;28;20017;-78
2023/06/11 09:51:41;;;;;;;2.90;2.67;;;24.70;58.40;;;;;;5065373;28;20021;-80
2023/06/11 09:54:08;;;;;;;3.63;3.33;;;24.80;58.00;;;;;;5060312;28;20021;-79
2023/06/11 09:56:37;;;;;;;3.25;2.95;;;25.00;57.90;;;;;;5054595;28;20025;-79
2023/06/11 09:59:03;;;;;;;3.92;3.60;;;25.30;57.30;;;;;;5036624;28;20055;-79
2023/06/11 10:01:30;;;;;;;3.20;2.90;;;25.00;56.60;;;;;;5032093;28;20032;-79
2023/06/11 10:03:57;;;;;;;3.13;2.92;;;24.90;57.60;;;;;;5055256;28;20059;-79
2023/06/11 10:06:29;;;;;;;3.20;2.90;;;24.80;57.50;;;;;;5055731;28;20025;-80
2023/06/11 10:09:00;;;;;;;3.33;2.80;;;24.80;57.90;;;;;;5055963;28;20033;-79
2023/06/11 10:11:29;;;;;;;3.10;2.63;;;24.90;58.00;;;;;;5039209;28;20028;-79
2023/06/11 10:14:01;;;;;;;3.05;2.78;;;25.10;56.90;;;;;;5056895;28;20059;-79
2023/06/11 10:16:27;;;;;;;2.92;2.72;;;24.80;56.80;;;;;;5063756;28;20486;-79
2023/06/11 10:19:06;;;;;;;3.30;2.90;;;24.40;56.50;;;;;;5043996;28;20080;-79
2023/06/11 10:21:44;;;;;;;2.80;2.60;;;24.30;57.00;;;;;;5074683;28;20028;-79
2023/06/11 10:24:28;;;;;;;2.90;2.70;;;24.40;57.70;;;;;;5038208;28;20040;-78
2023/06/11 10:27:13;;;;;;;2.95;2.70;;;24.50;57.90;;;;;;5059205;28;20025;-79
2023/06/11 10:29:49;;;;;;;4.40;3.15;;;24.60;57.30;;;;;;5057106;28;20044;-79
2023/06/11 10:32:22;;;;;;;3.05;2.80;;;24.60;56.50;;;;;;5057480;28;20017;-79
2023/06/11 10:34:54;;;;;;;3.10;2.67;;;24.60;56.80;;;;;;5056564;28;20400;-79
2023/06/11 10:37:33;;;;;;;2.80;2.58;;;24.30;57.20;;;;;;5057830;28;20025;-80
2023/06/11 10:40:00;;;;;;;2.63;2.42;;;;;;;;;;5055903;28;20021;-80
2023/06/11 10:42:35;;;;;;;2.63;2.42;;;;;;;;;;5060241;28;20025;-80
2023/06/11 10:45:06;;;;;;;2.25;2.15;;;24.70;56.80;;;;;;5059373;28;20017;-79
2023/06/11 10:47:50;;;;;;;2.90;2.70;;;25.00;56.80;;;;;;5060205;28;20064;-80
2023/06/11 10:50:23;;;;;;;2.80;2.60;;;25.10;55.20;;;;;;5059116;28;20100;-79
2023/06/11 10:52:56;;;;;;;4.07;2.40;;;25.10;55.00;;;;;;5059369;28;20470;-79
2023/06/11 10:55:23;;;;;;;2.88;2.45;;;25.40;55.30;;;;;;5058543;28;20098;-79
2023/06/11 10:57:53;;;;;;;2.75;2.55;;;25.60;54.30;;;;;;5060675;28;20033;-79
2023/06/11 11:00:22;;;;;;;2.38;2.17;;;25.60;54.10;;;;;;5060123;28;20512;-79
2023/06/11 11:02:48;;;;;;;2.65;2.40;;;25.60;54.10;;;;;;5059679;28;20056;-79
2023/06/11 11:05:14;;;;;;;2.70;2.50;;;25.20;54.40;;;;;;5060342;28;20029;-80
2023/06/11 11:07:44;;;;;;;2.60;2.40;;;24.80;55.10;;;;;;5059834;28;20102;-80
2023/06/11 11:10:11;;;;;;;5.40;2.47;;;24.80;55.90;;;;;;5059716;28;20025;-79
2023/06/11 11:12:44;;;;;;;3.17;2.97;;;24.90;54.70;;;;;;5060595;28;20064;-79
2023/06/11 11:15:13;;;;;;;2.53;2.33;;;24.80;54.70;;;;;;5044152;28;20052;-79
2023/06/11 11:17:40;;;;;;;3.10;2.80;;;24.70;54.60;;;;;;5071968;28;20026;-79
2023/06/11 11:20:10;;;;;;;2.53;2.33;;;25.00;54.70;;;;;;5074096;28;20044;-79
2023/06/11 11:22:36;;;;;;;2.85;2.65;;;25.20;53.90;;;;;;5075796;28;20116;-78
2023/06/11 11:25:04;;;;;;;3.03;2.83;;;25.50;53.30;;;;;;5074175;28;20020;-79
2023/06/11 11:27:30;;;;;;;2.78;2.58;;;25.60;52.00;;;;;;5050190;28;20025;-80
2023/06/11 11:29:58;;;;;;;2.42;2.25;;;25.70;52.80;;;;;;5061018;28;20028;-80
2023/06/11 11:32:27;;;;;;;3.13;2.67;;;25.70;52.20;;;;;;5059984;28;20088;-79
2023/06/11 11:34:55;;;;;;;2.60;2.40;;;25.80;50.90;;;;;;5059583;28;20050;-79
2023/06/11 11:37:21;;;;;;;2.25;2.05;;;26.00;51.40;;;;;;5059670;28;20415;-79
2023/06/11 11:39:48;;;;;;;2.60;2.40;;;;;;;;;;5060250;28;20021;-79
2023/06/11 11:42:14;;;;;;;2.78;2.55;;;26.00;49.50;;;;;;5060277;28;20029;-78
2023/06/11 11:44:41;;;;;;;3.20;2.50;;;25.80;50.90;;;;;;5060920;28;20435;-79
2023/06/11 11:47:11;;;;;;;3.30;3.00;;;25.60;50.80;;;;;;5059803;28;20017;-79
2023/06/11 11:49:37;;;;;;;3.47;3.17;;;25.70;51.20;;;;;;5061589;28;20025;-80
2023/06/11 11:52:07;;;;;;;3.03;2.58;;;26.00;51.00;;;;;;5059797;28;20466;-79
2023/06/11 11:54:33;;;;;;;4.20;2.50;;;26.20;49.20;;;;;;5042401;28;20029;-78
2023/06/11 11:57:03;;;;;;;4.85;2.67;;;26.20;49.70;;;;;;5061847;28;20029;-79
2023/06/11 11:59:31;;;;;;;2.85;2.65;;;;;;;;;;5063250;28;20110;-78
2023/06/11 12:01:59;;;;;;;2.30;2.20;;;26.00;49.30;;;;;;5063215;28;20385;-79
2023/06/11 12:04:36;;;;;;;2.60;2.40;;;26.00;50.40;;;;;;5062152;28;20031;-79
2023/06/11 12:07:06;;;;;;;3.40;2.40;;;26.20;50.40;;;;;;5061313;28;20025;-80
2023/06/11 12:09:33;;;;;;;2.60;2.40;;;26.20;50.30;;;;;;5059899;28;20029;-80
2023/06/11 12:11:58;;;;;;;2.40;2.20;;;26.40;50.10;;;;;;5060598;28;20075;-79
2023/06/11 12:14:24;;;;;;;3.38;2.78;;;26.70;49.40;;;;;;5059177;28;20029;-80
2023/06/11 12:16:50;;;;;;;2.80;2.60;;;26.60;49.20;;;;;;5061211;28;20063;-80
2023/06/11 12:19:18;;;;;;;2.97;2.78;;;26.60;49.10;;;;;;5059750;28;20077;-79
2023/06/11 12:21:44;;;;;;;2.92;2.67;;;26.70;49.00;;;;;;5061403;28;20025;-81
2023/06/11 12:24:11;;;;;;;4.38;2.70;;;26.80;49.20;;;;;;5060270;28;20036;-79
2023/06/11 12:26:38;;;;;;;3.08;2.65;;;26.80;48.60;;;;;;5060933;28;20047;-80
2023/06/11 12:29:03;;;;;;;2.75;2.55;;;26.70;48.50;;;;;;5060649;28;20056;-79
2023/06/11 12:31:30;;;;;;;2.80;2.50;;;26.50;48.70;;;;;;5060115;28;20091;-80
2023/06/11 12:33:56;;;;;;;3.78;2.58;;;26.20;48.90;;;;;;5061439;28;20060;-79
2023/06/11 12:36:21;;;;;;;2.75;2.55;;;25.80;49.40;;;;;;5071489;28;20013;-79
2023/06/11 12:38:47;;;;;;;2.92;2.72;;;25.70;50.00;;;;;;5072087;28;20090;-79
2023/06/11 12:41:13;;;;;;;3.03;2.75;;;26.10;49.50;;;;;;5073511;28;20036;-80
2023/06/11 12:43:38;;;;;;;2.30;2.10;;;26.20;48.50;;;;;;5052538;28;20428;-79
2023/06/11 12:46:04;;;;;;;2.90;2.70;;;26.40;48.40;;;;;;5060285;28;20053;-79
2023/06/11 12:48:30;;;;;;;2.53;2.33;;;26.70;47.70;;;;;;5057355;28;20431;-80
2023/06/11 12:50:55;;;;;;;2.35;2.10;;;27.20;47.80;;;;;;5056732;28;20025;-80
2023/06/11 12:53:21;;;;;;;2.88;2.67;;;27.50;46.10;;;;;;5039086;28;20025;-80
2023/06/11 12:55:47;;;;;;;2.95;2.58;;;27.60;45.50;;;;;;5056415;28;20481;-79